createdAt,value
2023-05-24T00:00:48.352Z,37.32
2023-05-24T00:01:48.287Z,37.31
2023-05-24T00:02:48.335Z,37.34
2023-05-24T00:03:48.356Z,37.30
2023-05-24T00:04:48.298Z,37.30
2023-05-24T00:05:48.230Z,37.30
2023-05-24T00:06:48.277Z,37.31
2023-05-24T00:07:48.218Z,37.28
2023-05-24T00:08:48.193Z,37.26
2023-05-24T00:09:48.176Z,37.26
2023-05-24T00:10:48.163Z,37.28
2023-05-24T00:11:48.154Z,37.23
2023-05-24T00:12:48.135Z,37.24
2023-05-24T00:13:48.126Z,37.20
2023-05-24T00:14:48.104Z,37.27
2023-05-24T00:15:48.126Z,37.22
2023-05-24T00:16:48.086Z,37.24
2023-05-24T00:17:48.109Z,37.22
2023-05-24T00:18:48.066Z,37.24
2023-05-24T00:19:48.075Z,37.26
2023-05-24T00:20:48.330Z,37.21
2023-05-24T00:21:48.035Z,37.18
2023-05-24T00:22:48.018Z,37.27
2023-05-24T00:23:48.012Z,37.22
2023-05-24T00:24:48.027Z,37.24
2023-05-24T00:25:47.988Z,37.28
2023-05-24T00:26:47.991Z,37.31
2023-05-24T00:27:47.982Z,37.17
2023-05-24T00:28:47.963Z,37.20
2023-05-24T00:29:48.022Z,37.26
2023-05-24T00:30:47.997Z,37.25
2023-05-24T00:31:47.934Z,37.23
2023-05-24T00:32:47.951Z,37.19
2023-05-24T00:33:47.971Z,37.19
2023-05-24T00:34:47.899Z,37.26
2023-05-24T00:35:47.918Z,37.24
2023-05-24T00:36:47.956Z,37.24
2023-05-24T00:37:47.874Z,37.22
2023-05-24T00:38:47.874Z,37.15
2023-05-24T00:39:47.837Z,37.30
2023-05-24T00:40:47.838Z,37.23
2023-05-24T00:41:47.814Z,37.23
2023-05-24T00:42:47.803Z,37.21
2023-05-24T00:43:47.786Z,37.25
2023-05-24T00:44:47.778Z,37.23
2023-05-24T00:45:47.810Z,37.24
2023-05-24T00:46:47.744Z,37.28
2023-05-24T00:47:47.768Z,37.23
2023-05-24T00:48:47.723Z,37.24
2023-05-24T00:49:47.713Z,37.24
2023-05-24T00:50:47.706Z,37.27
2023-05-24T00:51:47.690Z,37.30
2023-05-24T00:52:47.697Z,37.24
2023-05-24T00:53:47.685Z,37.21
2023-05-24T00:54:47.657Z,37.24
2023-05-24T00:55:47.666Z,37.24
2023-05-24T00:56:47.693Z,37.25
2023-05-24T00:57:47.719Z,37.23
2023-05-24T00:58:47.650Z,37.26
2023-05-24T00:59:47.689Z,37.20
2023-05-24T01:00:47.608Z,37.21
2023-05-24T01:01:47.646Z,37.21
2023-05-24T01:02:47.693Z,37.28
2023-05-24T01:03:47.673Z,37.24
2023-05-24T01:04:47.556Z,37.21
2023-05-24T01:05:47.563Z,37.25
2023-05-24T01:06:47.527Z,37.25
2023-05-24T01:07:47.529Z,37.24
2023-05-24T01:08:47.519Z,37.28
2023-05-24T01:09:47.506Z,37.32
2023-05-24T01:10:47.505Z,37.28
2023-05-24T01:11:47.486Z,37.32
2023-05-24T01:12:47.499Z,37.30
2023-05-24T01:13:47.512Z,37.34
2023-05-24T01:14:47.467Z,37.34
2023-05-24T01:15:47.499Z,37.28
2023-05-24T01:16:47.462Z,37.28
2023-05-24T01:17:47.502Z,37.33
2023-05-24T01:18:47.461Z,37.30
2023-05-24T01:19:47.430Z,37.32
2023-05-24T01:20:47.695Z,37.31
2023-05-24T01:21:47.433Z,37.33
2023-05-24T01:22:47.409Z,37.29
2023-05-24T01:23:47.392Z,37.35
2023-05-24T01:24:47.380Z,37.30
2023-05-24T01:25:47.388Z,37.30
2023-05-24T01:26:47.368Z,37.30
2023-05-24T01:27:47.384Z,37.30
2023-05-24T01:28:47.348Z,37.31
2023-05-24T01:29:47.343Z,37.35
2023-05-24T01:30:47.354Z,37.31
2023-05-24T01:31:47.429Z,37.28
2023-05-24T01:32:47.355Z,37.34
2023-05-24T01:33:47.288Z,37.33
2023-05-24T01:34:47.305Z,37.44
2023-05-24T01:35:47.340Z,37.37
2023-05-24T01:36:47.261Z,37.39
2023-05-24T01:37:47.270Z,37.31
2023-05-24T01:38:47.256Z,37.31
2023-05-24T01:39:47.225Z,37.39
2023-05-24T01:40:47.227Z,37.31
2023-05-24T01:41:47.248Z,37.40
2023-05-24T01:42:47.266Z,37.36
2023-05-24T01:43:47.271Z,37.32
2023-05-24T01:44:47.307Z,37.34
2023-05-24T01:45:47.328Z,37.31
2023-05-24T01:46:47.385Z,37.34
2023-05-24T01:47:47.370Z,37.39
2023-05-24T01:48:47.382Z,37.39
2023-05-24T01:49:47.453Z,37.38
2023-05-24T01:50:47.474Z,37.31
2023-05-24T01:51:47.599Z,37.39
2023-05-24T01:52:47.539Z,37.39
2023-05-24T01:53:47.680Z,37.32
2023-05-24T01:54:47.575Z,37.34
2023-05-24T01:55:47.576Z,37.37
2023-05-24T01:56:47.593Z,37.35
2023-05-24T01:57:47.581Z,37.40
2023-05-24T01:58:47.581Z,37.41
2023-05-24T01:59:47.572Z,37.41
2023-05-24T02:00:47.587Z,37.35
2023-05-24T02:01:47.560Z,37.40
2023-05-24T02:02:47.628Z,37.41
2023-05-24T02:03:47.556Z,37.45
2023-05-24T02:04:47.607Z,37.41
2023-05-24T02:05:47.564Z,37.35
2023-05-24T02:06:47.569Z,37.42
2023-05-24T02:07:47.538Z,37.38
2023-05-24T02:08:47.596Z,37.44
2023-05-24T02:09:47.566Z,37.43
2023-05-24T02:10:47.580Z,37.45
2023-05-24T02:11:47.582Z,37.38
2023-05-24T02:12:47.537Z,37.36
2023-05-24T02:13:47.528Z,37.45
2023-05-24T02:14:47.512Z,37.50
2023-05-24T02:15:47.513Z,37.41
2023-05-24T02:16:47.536Z,37.37
2023-05-24T02:17:47.642Z,37.37
2023-05-24T02:18:47.498Z,37.41
2023-05-24T02:19:47.531Z,37.41
2023-05-24T02:20:47.478Z,37.41
2023-05-24T02:21:47.484Z,37.45
2023-05-24T02:22:47.472Z,37.45
2023-05-24T02:23:47.500Z,37.40
2023-05-24T02:24:47.478Z,37.43
2023-05-24T02:25:47.484Z,37.42
2023-05-24T02:26:47.487Z,37.45
2023-05-24T02:27:47.487Z,37.43
2023-05-24T02:28:47.462Z,37.41
2023-05-24T02:29:47.472Z,37.41
2023-05-24T02:30:47.585Z,37.42
2023-05-24T02:31:47.468Z,37.39
2023-05-24T02:32:47.469Z,37.54
2023-05-24T02:33:47.458Z,37.42
2023-05-24T02:34:47.426Z,37.50
2023-05-24T02:35:47.418Z,37.45
2023-05-24T02:36:47.425Z,37.46
2023-05-24T02:37:47.426Z,37.40
2023-05-24T02:38:47.403Z,37.37
2023-05-24T02:39:47.372Z,37.41
2023-05-24T02:40:47.368Z,37.41
2023-05-24T02:41:47.363Z,37.37
2023-05-24T02:42:47.340Z,37.40
2023-05-24T02:43:47.334Z,37.42
2023-05-24T02:44:47.326Z,37.47
2023-05-24T02:45:47.311Z,37.51
2023-05-24T02:46:47.437Z,37.46
2023-05-24T02:47:47.361Z,37.57
2023-05-24T02:48:47.299Z,37.48
2023-05-24T02:49:47.299Z,37.52
2023-05-24T02:50:47.279Z,37.53
2023-05-24T02:51:47.271Z,37.52
2023-05-24T02:52:47.247Z,37.50
2023-05-24T02:53:47.253Z,37.48
2023-05-24T02:54:47.250Z,37.46
2023-05-24T02:55:47.242Z,37.47
2023-05-24T02:56:47.219Z,37.51
2023-05-24T02:57:47.222Z,37.51
2023-05-24T02:58:47.218Z,37.56
2023-05-24T02:59:47.219Z,37.51
2023-05-24T03:00:47.209Z,37.62
2023-05-24T03:01:47.213Z,37.51
2023-05-24T03:02:47.240Z,37.48
2023-05-24T03:03:47.283Z,37.60
2023-05-24T03:04:47.187Z,37.53
2023-05-24T03:05:47.220Z,37.50
2023-05-24T03:06:47.181Z,37.48
2023-05-24T03:07:47.175Z,37.52
2023-05-24T03:08:47.155Z,37.50
2023-05-24T03:09:47.147Z,37.51
2023-05-24T03:10:47.136Z,37.57
2023-05-24T03:11:47.156Z,37.52
2023-05-24T03:12:47.137Z,37.57
2023-05-24T03:13:47.146Z,37.57
2023-05-24T03:14:47.138Z,37.59
2023-05-24T03:15:47.168Z,37.62
2023-05-24T03:16:47.096Z,37.66
2023-05-24T03:17:47.172Z,37.54
2023-05-24T03:18:47.093Z,37.52
2023-05-24T03:19:47.083Z,37.57
2023-05-24T03:20:47.119Z,37.61
2023-05-24T03:21:47.060Z,37.54
2023-05-24T03:22:47.076Z,37.52
2023-05-24T03:23:47.053Z,37.52
2023-05-24T03:24:47.045Z,37.65
2023-05-24T03:25:47.039Z,37.45
2023-05-24T03:26:47.016Z,37.51
2023-05-24T03:27:47.001Z,37.49
2023-05-24T03:28:46.999Z,37.53
2023-05-24T03:29:46.981Z,37.50
2023-05-24T03:30:47.001Z,37.58
2023-05-24T03:31:47.063Z,37.52
2023-05-24T03:32:47.025Z,37.56
2023-05-24T03:33:46.979Z,37.57
2023-05-24T03:34:46.977Z,37.57
2023-05-24T03:35:46.936Z,37.57
2023-05-24T03:36:46.937Z,37.59
2023-05-24T03:37:46.914Z,37.58
2023-05-24T03:38:46.886Z,37.55
2023-05-24T03:39:46.887Z,37.57
2023-05-24T03:40:46.881Z,37.57
2023-05-24T03:41:46.890Z,37.57
2023-05-24T03:42:46.856Z,37.60
2023-05-24T03:43:46.849Z,37.61
2023-05-24T03:44:46.828Z,37.61
2023-05-24T03:45:46.851Z,37.71
2023-05-24T03:46:46.826Z,37.61
2023-05-24T03:47:46.831Z,37.54
2023-05-24T03:48:46.793Z,37.68
2023-05-24T03:49:46.800Z,37.62
2023-05-24T03:50:46.781Z,37.57
2023-05-24T03:51:46.777Z,37.65
2023-05-24T03:52:46.772Z,37.60
2023-05-24T03:53:46.797Z,37.61
2023-05-24T03:54:46.772Z,37.57
2023-05-24T03:55:47.075Z,37.45
2023-05-24T03:56:46.747Z,37.55
2023-05-24T03:57:46.736Z,37.54
2023-05-24T03:58:46.759Z,37.58
2023-05-24T03:59:46.726Z,37.54
2023-05-24T04:00:46.713Z,37.53
2023-05-24T04:01:46.688Z,37.50
2023-05-24T04:02:46.729Z,37.48
2023-05-24T04:03:46.698Z,37.52
2023-05-24T04:04:46.657Z,37.55
2023-05-24T04:05:46.650Z,37.57
2023-05-24T04:06:46.649Z,37.52
2023-05-24T04:07:46.666Z,37.59
2023-05-24T04:08:46.616Z,37.57
2023-05-24T04:09:46.613Z,37.53
2023-05-24T04:10:46.607Z,37.58
2023-05-24T04:11:46.609Z,37.57
2023-05-24T04:12:46.593Z,37.57
2023-05-24T04:13:46.587Z,37.52
2023-05-24T04:14:46.579Z,37.53
2023-05-24T04:15:46.582Z,37.50
2023-05-24T04:16:46.569Z,37.50
2023-05-24T04:17:46.740Z,37.53
2023-05-24T04:18:46.727Z,37.55
2023-05-24T04:19:46.577Z,37.54
2023-05-24T04:20:46.597Z,37.52
2023-05-24T04:21:46.650Z,37.54
2023-05-24T04:22:46.593Z,37.48
2023-05-24T04:23:46.592Z,37.57
2023-05-24T04:24:46.593Z,37.55
2023-05-24T04:25:46.599Z,37.52
2023-05-24T04:26:46.603Z,37.48
2023-05-24T04:27:46.601Z,37.45
2023-05-24T04:28:46.616Z,37.57
2023-05-24T04:29:46.612Z,37.57
2023-05-24T04:30:46.624Z,37.61
2023-05-24T04:31:46.676Z,37.45
2023-05-24T04:32:46.746Z,37.62
2023-05-24T04:33:46.613Z,37.58
2023-05-24T04:34:46.646Z,37.46
2023-05-24T04:35:46.622Z,37.54
2023-05-24T04:36:46.629Z,37.59
2023-05-24T04:37:46.658Z,37.55
2023-05-24T04:38:46.623Z,37.63
2023-05-24T04:39:46.653Z,37.63
2023-05-24T04:40:46.619Z,37.53
2023-05-24T04:41:46.630Z,37.55
2023-05-24T04:42:46.628Z,37.59
2023-05-24T04:43:46.628Z,37.53
2023-05-24T04:44:46.633Z,37.55
2023-05-24T04:45:46.629Z,37.52
2023-05-24T04:46:46.689Z,37.53
2023-05-24T04:47:46.684Z,37.54
2023-05-24T04:48:46.609Z,37.57
2023-05-24T04:49:46.683Z,37.50
2023-05-24T04:50:46.639Z,37.68
2023-05-24T04:51:46.636Z,37.57
2023-05-24T04:52:46.672Z,37.52
2023-05-24T04:53:46.645Z,37.48
2023-05-24T04:54:46.623Z,37.57
2023-05-24T04:55:46.645Z,37.60
2023-05-24T04:56:46.650Z,37.49
2023-05-24T04:57:46.677Z,37.47
2023-05-24T04:58:46.626Z,37.54
2023-05-24T04:59:46.601Z,37.53
2023-05-24T05:00:46.582Z,37.57
2023-05-24T05:01:46.673Z,37.52
2023-05-24T05:02:46.652Z,37.50
2023-05-24T05:03:46.628Z,37.41
2023-05-24T05:04:46.567Z,37.46
2023-05-24T05:05:46.613Z,37.50
2023-05-24T05:06:46.555Z,37.47
2023-05-24T05:07:46.515Z,37.55
2023-05-24T05:08:46.531Z,37.59
2023-05-24T05:09:46.488Z,37.49
2023-05-24T05:10:46.484Z,37.55
2023-05-24T05:11:46.489Z,37.49
2023-05-24T05:12:46.480Z,37.47
2023-05-24T05:13:46.468Z,37.45
2023-05-24T05:14:46.471Z,37.45
2023-05-24T05:15:46.456Z,37.44
2023-05-24T05:16:46.744Z,37.54
2023-05-24T05:17:46.446Z,37.57
2023-05-24T05:18:46.435Z,37.51
2023-05-24T05:19:46.422Z,37.54
2023-05-24T05:20:46.716Z,37.52
2023-05-24T05:21:46.406Z,37.44
2023-05-24T05:22:46.370Z,37.50
2023-05-24T05:23:46.379Z,37.51
2023-05-24T05:24:46.352Z,37.45
2023-05-24T05:25:46.362Z,37.53
2023-05-24T05:26:46.371Z,37.46
2023-05-24T05:27:46.388Z,37.51
2023-05-24T05:28:46.343Z,37.50
2023-05-24T05:29:46.341Z,37.45
2023-05-24T05:30:46.373Z,37.45
2023-05-24T05:31:46.360Z,37.53
2023-05-24T05:32:46.554Z,37.55
2023-05-24T05:33:46.385Z,37.52
2023-05-24T05:34:46.360Z,37.77
2023-05-24T05:35:46.343Z,37.85
2023-05-24T05:36:46.354Z,37.89
2023-05-24T05:37:46.400Z,38.11
2023-05-24T05:38:46.401Z,38.12
2023-05-24T05:39:46.350Z,38.34
2023-05-24T05:40:46.349Z,38.91
2023-05-24T05:41:46.372Z,39.21
2023-05-24T05:42:46.318Z,39.54
2023-05-24T05:43:46.304Z,39.52
2023-05-24T05:44:46.364Z,39.84
2023-05-24T05:45:46.384Z,39.94
2023-05-24T05:46:46.538Z,40.14
2023-05-24T05:47:46.306Z,40.21
2023-05-24T05:48:46.574Z,40.96
2023-05-24T05:49:46.254Z,40.61
2023-05-24T05:50:46.294Z,40.62
2023-05-24T05:51:46.237Z,40.28
2023-05-24T05:52:46.222Z,40.07
2023-05-24T05:53:46.312Z,40.01
2023-05-24T05:54:46.310Z,39.87
2023-05-24T05:55:46.295Z,39.88
2023-05-24T05:56:46.368Z,39.74
2023-05-24T05:57:46.425Z,39.71
2023-05-24T05:58:46.466Z,39.63
2023-05-24T05:59:46.507Z,39.57
2023-05-24T06:00:46.646Z,39.49
2023-05-24T06:01:46.634Z,39.44
2023-05-24T06:02:46.955Z,39.35
2023-05-24T06:03:46.961Z,39.38
2023-05-24T06:04:46.791Z,39.49
2023-05-24T06:05:46.830Z,39.47
2023-05-24T06:06:46.898Z,39.28
2023-05-24T06:07:46.894Z,39.37
2023-05-24T06:08:46.912Z,39.36
2023-05-24T06:09:46.928Z,39.34
2023-05-24T06:10:46.980Z,39.22
2023-05-24T06:11:47.077Z,39.26
2023-05-24T06:12:47.056Z,39.31
2023-05-24T06:13:47.134Z,39.22
2023-05-24T06:14:47.009Z,39.22
2023-05-24T06:15:47.156Z,39.19
2023-05-24T06:16:47.120Z,39.18
2023-05-24T06:17:47.159Z,39.23
2023-05-24T06:18:57.056Z,39.14
2023-05-24T06:19:48.126Z,39.21
2023-05-24T06:20:47.250Z,39.16
2023-05-24T06:21:47.113Z,39.22
2023-05-24T06:22:47.286Z,39.16
2023-05-24T06:23:47.197Z,39.19
2023-05-24T06:24:47.062Z,39.15
2023-05-24T06:25:47.055Z,39.11
2023-05-24T06:26:47.489Z,39.08
2023-05-24T06:27:47.356Z,39.11
2023-05-24T06:28:47.029Z,39.09
2023-05-24T06:29:47.079Z,39.07
2023-05-24T06:30:47.141Z,39.06
2023-05-24T06:31:47.173Z,39.01
2023-05-24T06:32:47.028Z,38.98
2023-05-24T06:33:55.981Z,38.96
2023-05-24T06:34:47.997Z,38.96
2023-05-24T06:35:46.995Z,38.95
2023-05-24T06:36:46.983Z,38.84
2023-05-24T06:37:46.992Z,38.92
2023-05-24T06:38:46.976Z,38.93
2023-05-24T06:39:46.953Z,38.83
2023-05-24T06:40:47.050Z,38.86
2023-05-24T06:41:47.128Z,38.84
2023-05-24T06:42:46.935Z,39.88
2023-05-24T06:43:46.939Z,39.63
2023-05-24T06:44:46.921Z,39.75
2023-05-24T06:45:46.943Z,39.64
2023-05-24T06:46:47.034Z,39.94
2023-05-24T06:47:47.151Z,39.72
2023-05-24T06:48:47.200Z,40.00
2023-05-24T06:49:47.162Z,40.03
2023-05-24T06:50:47.349Z,40.00
2023-05-24T06:51:47.257Z,40.07
2023-05-24T06:52:47.373Z,40.13
2023-05-24T06:53:47.328Z,40.23
2023-05-24T06:54:47.297Z,40.39
2023-05-24T06:55:47.319Z,40.27
2023-05-24T06:56:47.287Z,40.27
2023-05-24T06:57:47.249Z,40.46
2023-05-24T06:58:47.218Z,40.38
2023-05-24T06:59:47.202Z,40.20
2023-05-24T07:00:47.227Z,40.28
2023-05-24T07:01:47.258Z,39.99
2023-05-24T07:02:47.302Z,40.19
2023-05-24T07:03:47.335Z,40.24
2023-05-24T07:04:47.405Z,40.18
2023-05-24T07:05:47.432Z,40.16
2023-05-24T07:06:47.480Z,40.25
2023-05-24T07:07:47.507Z,40.25
2023-05-24T07:08:47.563Z,40.16
2023-05-24T07:09:47.594Z,40.23
2023-05-24T07:10:47.591Z,40.27
2023-05-24T07:11:47.604Z,40.29
2023-05-24T07:12:47.548Z,40.30
2023-05-24T07:13:47.550Z,40.22
2023-05-24T07:14:47.532Z,40.17
2023-05-24T07:15:47.551Z,40.27
2023-05-24T07:16:47.606Z,40.33
2023-05-24T07:17:47.545Z,40.31
2023-05-24T07:18:47.486Z,40.28
2023-05-24T07:19:47.488Z,40.25
2023-05-24T07:20:48.002Z,40.28
2023-05-24T07:21:47.517Z,40.20
2023-05-24T07:22:47.581Z,40.29
2023-05-24T07:23:47.538Z,40.24
2023-05-24T07:24:47.578Z,40.16
2023-05-24T07:25:47.619Z,40.24
2023-05-24T07:26:47.656Z,40.18
2023-05-24T07:27:47.699Z,40.17
2023-05-24T07:28:47.734Z,40.16
2023-05-24T07:29:48.510Z,40.18
2023-05-24T07:30:48.061Z,40.16
2023-05-24T07:31:48.748Z,39.91
2023-05-24T07:32:47.995Z,39.95
2023-05-24T07:33:47.939Z,40.00
2023-05-24T07:34:47.935Z,40.15
2023-05-24T07:35:47.967Z,40.24
2023-05-24T07:36:48.082Z,40.24
2023-05-24T07:37:48.043Z,40.65
2023-05-24T07:38:47.983Z,40.73
2023-05-24T07:39:47.964Z,39.65
2023-05-24T07:40:48.052Z,40.04
2023-05-24T07:41:48.012Z,41.20
2023-05-24T07:42:47.939Z,40.85
2023-05-24T07:43:47.971Z,40.99
2023-05-24T07:44:47.921Z,41.01
2023-05-24T07:45:47.980Z,41.06
2023-05-24T07:46:47.941Z,41.16
2023-05-24T07:47:48.067Z,41.07
2023-05-24T07:48:48.208Z,41.17
2023-05-24T07:49:48.030Z,41.16
2023-05-24T07:50:48.063Z,41.12
2023-05-24T07:51:48.083Z,41.25
2023-05-24T07:52:48.145Z,41.29
2023-05-24T07:53:48.219Z,41.28
2023-05-24T07:54:48.140Z,41.18
2023-05-24T07:55:48.178Z,41.07
2023-05-24T07:56:48.254Z,41.23
2023-05-24T07:57:48.180Z,41.13
2023-05-24T07:58:48.192Z,41.14
2023-05-24T07:59:48.223Z,41.02
2023-05-24T08:00:48.223Z,40.96
2023-05-24T08:01:48.697Z,40.78
2023-05-24T08:02:48.297Z,40.62
2023-05-24T08:03:48.400Z,40.49
2023-05-24T08:04:48.264Z,40.55
2023-05-24T08:05:48.271Z,40.59
2023-05-24T08:06:48.317Z,40.40
2023-05-24T08:07:48.376Z,40.44
2023-05-24T08:08:48.303Z,40.38
2023-05-24T08:09:48.311Z,40.35
2023-05-24T08:10:48.326Z,40.10
2023-05-24T08:11:48.357Z,40.16
2023-05-24T08:12:48.332Z,40.22
2023-05-24T08:13:48.369Z,40.16
2023-05-24T08:14:48.356Z,40.03
2023-05-24T08:15:48.378Z,39.98
2023-05-24T08:16:48.427Z,40.03
2023-05-24T08:17:48.460Z,40.00
2023-05-24T08:18:48.389Z,40.00
2023-05-24T08:19:48.406Z,40.53
2023-05-24T08:20:48.531Z,40.10
2023-05-24T08:21:48.427Z,40.18
2023-05-24T08:22:48.461Z,39.96
2023-05-24T08:23:48.467Z,40.00
2023-05-24T08:24:48.490Z,40.24
2023-05-24T08:25:48.642Z,40.06
2023-05-24T08:26:48.519Z,40.12
2023-05-24T08:27:48.565Z,39.98
2023-05-24T08:28:48.579Z,40.00
2023-05-24T08:29:48.539Z,40.01
2023-05-24T08:30:48.556Z,42.14
2023-05-24T08:31:48.553Z,42.69
2023-05-24T08:32:48.637Z,45.09
2023-05-24T08:33:48.562Z,47.07
2023-05-24T08:34:48.562Z,47.51
2023-05-24T08:35:49.211Z,48.67
2023-05-24T08:36:48.607Z,50.51
2023-05-24T08:37:48.657Z,50.28
2023-05-24T08:38:48.660Z,51.78
2023-05-24T08:39:48.662Z,52.40
2023-05-24T08:40:48.701Z,51.94
2023-05-24T08:42:01.037Z,51.54
2023-05-24T08:42:49.791Z,52.01
2023-05-24T08:43:48.799Z,52.42
2023-05-24T08:44:48.849Z,52.61
2023-05-24T08:45:48.924Z,50.98
2023-05-24T08:46:48.994Z,49.47
2023-05-24T08:47:49.034Z,48.63
2023-05-24T08:48:48.951Z,47.97
2023-05-24T08:49:49.056Z,47.59
2023-05-24T08:50:48.961Z,47.54
2023-05-24T08:51:50.840Z,47.19
2023-05-24T08:52:49.082Z,46.64
2023-05-24T08:53:49.187Z,46.24
2023-05-24T08:54:49.159Z,45.83
2023-05-24T08:55:49.221Z,45.42
2023-05-24T08:56:49.242Z,45.02
2023-05-24T08:57:49.279Z,44.67
2023-05-24T08:58:49.282Z,44.31
2023-05-24T08:59:49.320Z,44.02
2023-05-24T09:00:49.362Z,43.79
2023-05-24T09:01:49.365Z,43.57
2023-05-24T09:02:49.299Z,43.35
2023-05-24T09:03:49.340Z,43.11
2023-05-24T09:04:49.304Z,42.92
2023-05-24T09:05:49.307Z,42.71
2023-05-24T09:06:49.719Z,42.47
2023-05-24T09:07:49.483Z,42.20
2023-05-24T09:08:49.373Z,42.00
2023-05-24T09:09:49.302Z,41.84
2023-05-24T09:10:55.638Z,41.67
2023-05-24T09:11:50.332Z,41.45
2023-05-24T09:12:49.363Z,41.38
2023-05-24T09:13:49.305Z,41.33
2023-05-24T09:14:49.309Z,41.11
2023-05-24T09:15:49.379Z,41.01
2023-05-24T09:16:49.342Z,40.95
2023-05-24T09:17:49.362Z,40.77
2023-05-24T09:18:49.396Z,40.70
2023-05-24T09:19:49.344Z,40.62
2023-05-24T09:20:49.384Z,40.50
2023-05-24T09:21:49.331Z,40.48
2023-05-24T09:22:49.392Z,40.42
2023-05-24T09:23:49.350Z,40.32
2023-05-24T09:24:49.360Z,40.27
2023-05-24T09:25:49.342Z,40.17
2023-05-24T09:26:49.340Z,40.07
2023-05-24T09:27:49.469Z,40.01
2023-05-24T09:28:49.328Z,39.89
2023-05-24T09:29:49.349Z,39.95
2023-05-24T09:30:49.342Z,39.90
2023-05-24T09:31:49.411Z,39.82
2023-05-24T09:32:49.369Z,39.69
2023-05-24T09:33:49.317Z,39.72
2023-05-24T09:34:49.352Z,39.71
2023-05-24T09:35:49.345Z,39.61
2023-05-24T09:36:49.338Z,39.62
2023-05-24T09:37:49.362Z,39.56
2023-05-24T09:38:49.361Z,39.52
2023-05-24T09:39:49.355Z,39.54
2023-05-24T09:40:49.342Z,39.49
2023-05-24T09:41:49.682Z,41.12
2023-05-24T09:42:49.333Z,41.34
2023-05-24T09:43:49.364Z,43.42
2023-05-24T09:44:49.357Z,43.57
2023-05-24T09:45:49.604Z,45.85
2023-05-24T09:46:49.494Z,45.07
2023-05-24T09:47:49.414Z,45.28
2023-05-24T09:48:49.450Z,46.01
2023-05-24T09:49:49.458Z,46.66
2023-05-24T09:50:49.470Z,46.75
2023-05-24T09:51:49.589Z,48.11
2023-05-24T09:52:49.549Z,47.48
2023-05-24T09:53:49.683Z,47.20
2023-05-24T09:54:49.627Z,47.02
2023-05-24T09:55:49.675Z,47.40
2023-05-24T09:56:49.699Z,47.54
2023-05-24T09:57:49.723Z,47.23
2023-05-24T09:58:49.851Z,46.55
2023-05-24T09:59:49.904Z,46.31
2023-05-24T10:00:50.017Z,46.39
2023-05-24T10:01:50.167Z,45.66
2023-05-24T10:02:53.061Z,45.86
2023-05-24T10:03:50.278Z,45.05
2023-05-24T10:04:50.308Z,45.36
2023-05-24T10:05:50.226Z,44.81
2023-05-24T10:06:50.265Z,44.64
2023-05-24T10:07:50.277Z,44.33
2023-05-24T10:08:50.333Z,44.38
2023-05-24T10:09:50.392Z,44.04
2023-05-24T10:10:50.336Z,43.80
2023-05-24T10:11:50.627Z,43.60
2023-05-24T10:12:50.338Z,43.41
2023-05-24T10:13:50.383Z,43.29
2023-05-24T10:14:50.433Z,43.17
2023-05-24T10:15:50.440Z,42.99
2023-05-24T10:16:50.547Z,42.82
2023-05-24T10:17:50.506Z,42.62
2023-05-24T10:18:50.536Z,42.49
2023-05-24T10:19:50.480Z,42.38
2023-05-24T10:20:51.071Z,42.37
2023-05-24T10:21:50.571Z,42.41
2023-05-24T10:22:50.603Z,42.64
2023-05-24T10:23:50.504Z,42.71
2023-05-24T10:24:50.681Z,42.71
2023-05-24T10:25:50.500Z,42.70
2023-05-24T10:26:50.544Z,42.65
2023-05-24T10:27:50.533Z,42.58
2023-05-24T10:28:50.525Z,42.60
2023-05-24T10:29:50.556Z,42.50
2023-05-24T10:30:50.680Z,42.54
2023-05-24T10:31:50.596Z,42.56
2023-05-24T10:32:50.634Z,42.48
2023-05-24T10:33:50.586Z,42.39
2023-05-24T10:34:50.604Z,42.34
2023-05-24T10:35:50.662Z,42.25
2023-05-24T10:36:50.750Z,42.47
2023-05-24T10:37:50.788Z,42.44
2023-05-24T10:38:50.791Z,42.14
2023-05-24T10:39:50.817Z,41.99
2023-05-24T10:40:50.980Z,42.83
2023-05-24T10:41:50.859Z,42.60
2023-05-24T10:42:50.825Z,42.81
2023-05-24T10:44:04.857Z,43.03
2023-05-24T10:44:51.834Z,43.36
2023-05-24T10:45:50.901Z,43.41
2023-05-24T10:46:50.836Z,43.54
2023-05-24T10:47:50.884Z,43.64
2023-05-24T10:48:50.812Z,43.70
2023-05-24T10:49:50.826Z,43.79
2023-05-24T10:50:50.890Z,43.88
2023-05-24T10:51:50.824Z,43.86
2023-05-24T10:52:50.839Z,43.94
2023-05-24T10:53:50.817Z,44.14
2023-05-24T10:55:03.268Z,44.10
2023-05-24T10:55:51.840Z,44.10
2023-05-24T10:56:50.818Z,44.25
2023-05-24T10:57:50.818Z,44.29
2023-05-24T10:58:50.814Z,44.27
2023-05-24T10:59:50.880Z,44.25
2023-05-24T11:00:50.946Z,44.32
2023-05-24T11:01:50.863Z,44.38
2023-05-24T11:02:50.858Z,44.30
2023-05-24T11:03:50.822Z,44.61
2023-05-24T11:04:50.824Z,44.47
2023-05-24T11:05:50.987Z,44.66
2023-05-24T11:06:50.870Z,44.54
2023-05-24T11:07:50.803Z,44.64
2023-05-24T11:08:50.800Z,44.57
2023-05-24T11:09:50.799Z,44.52
2023-05-24T11:10:50.788Z,44.57
2023-05-24T11:11:50.809Z,44.60
2023-05-24T11:12:50.841Z,44.58
2023-05-24T11:13:50.876Z,44.80
2023-05-24T11:14:50.805Z,44.62
2023-05-24T11:15:50.826Z,44.53
2023-05-24T11:16:50.843Z,44.59
2023-05-24T11:17:50.854Z,44.58
2023-05-24T11:18:50.756Z,44.54
2023-05-24T11:19:50.808Z,44.57
2023-05-24T11:20:50.822Z,44.43
2023-05-24T11:21:50.725Z,44.53
2023-05-24T11:22:50.722Z,44.50
2023-05-24T11:23:50.674Z,44.62
2023-05-24T11:24:50.692Z,44.62
2023-05-24T11:25:50.626Z,45.03
2023-05-24T11:26:50.631Z,44.90
2023-05-24T11:27:50.728Z,44.70
2023-05-24T11:28:50.566Z,44.60
2023-05-24T11:29:50.606Z,44.47
2023-05-24T11:30:50.621Z,44.19
2023-05-24T11:31:50.535Z,43.97
2023-05-24T11:32:50.515Z,43.76
2023-05-24T11:33:50.461Z,43.67
2023-05-24T11:34:50.510Z,43.50
2023-05-24T11:35:50.438Z,43.34
2023-05-24T11:36:50.414Z,43.30
2023-05-24T11:37:50.389Z,43.18
2023-05-24T11:38:50.384Z,42.97
2023-05-24T11:39:50.359Z,42.76
2023-05-24T11:40:50.329Z,42.70
2023-05-24T11:41:50.358Z,42.70
2023-05-24T11:42:50.314Z,42.45
2023-05-24T11:43:50.290Z,42.37
2023-05-24T11:44:50.284Z,42.33
2023-05-24T11:45:50.319Z,42.14
2023-05-24T11:46:50.297Z,42.20
2023-05-24T11:47:50.247Z,42.04
2023-05-24T11:48:50.231Z,42.27
2023-05-24T11:49:50.182Z,42.16
2023-05-24T11:50:50.645Z,42.04
2023-05-24T11:51:50.169Z,42.10
2023-05-24T11:52:50.145Z,42.13
2023-05-24T11:54:50.139Z,41.98
2023-05-24T11:55:50.139Z,41.97
2023-05-24T11:56:50.114Z,41.90
2023-05-24T11:57:50.063Z,41.88
2023-05-24T11:58:50.070Z,41.78
2023-05-24T11:59:50.029Z,41.69
2023-05-24T12:00:50.010Z,41.72
2023-05-24T12:01:50.032Z,41.68
2023-05-24T12:02:50.131Z,41.63
2023-05-24T12:03:50.395Z,41.55
2023-05-24T12:04:50.227Z,41.57
2023-05-24T12:05:50.195Z,41.48
2023-05-24T12:06:50.213Z,41.40
2023-05-24T12:07:50.266Z,41.37
2023-05-24T12:08:50.308Z,41.36
2023-05-24T12:09:50.318Z,41.36
2023-05-24T12:10:50.382Z,41.31
2023-05-24T12:11:50.417Z,41.28
2023-05-24T12:12:50.440Z,41.24
2023-05-24T12:13:50.476Z,41.27
2023-05-24T12:14:50.520Z,41.22
2023-05-24T12:15:52.687Z,41.09
2023-05-24T12:16:50.549Z,41.11
2023-05-24T12:17:50.610Z,41.10
2023-05-24T12:19:02.355Z,40.96
2023-05-24T12:19:51.510Z,41.03
2023-05-24T12:20:50.623Z,40.99
2023-05-24T12:21:52.734Z,40.91
2023-05-24T12:22:50.471Z,40.93
2023-05-24T12:23:50.408Z,40.91
2023-05-24T12:24:50.365Z,40.91
2023-05-24T12:25:50.342Z,40.79
2023-05-24T12:26:50.359Z,40.75
2023-05-24T12:27:52.294Z,40.76
2023-05-24T12:28:50.304Z,40.77
2023-05-24T12:29:50.272Z,40.69
2023-05-24T12:30:50.242Z,40.61
2023-05-24T12:31:50.283Z,40.72
2023-05-24T12:32:50.237Z,40.66
2023-05-24T12:33:52.125Z,40.64
2023-05-24T12:34:50.185Z,40.57
2023-05-24T12:35:50.253Z,40.53
2023-05-24T12:36:50.133Z,40.53
2023-05-24T12:37:50.108Z,40.47
2023-05-24T12:38:50.082Z,40.49
2023-05-24T12:40:59.952Z,40.45
2023-05-24T12:41:51.042Z,40.37
2023-05-24T12:42:50.132Z,40.34
2023-05-24T12:43:50.122Z,40.34
2023-05-24T12:44:49.985Z,40.22
2023-05-24T12:45:51.183Z,40.27
2023-05-24T12:46:49.995Z,40.22
2023-05-24T12:47:49.932Z,40.25
2023-05-24T12:48:49.909Z,40.17
2023-05-24T12:49:49.894Z,40.23
2023-05-24T12:50:49.888Z,40.14
2023-05-24T12:51:49.868Z,40.09
2023-05-24T12:52:49.866Z,40.09
2023-05-24T12:53:49.837Z,40.03
2023-05-24T12:54:49.835Z,40.03